createdAt,value
2018-02-23T00:00:22.976Z,60.69
2018-02-23T00:02:50.832Z,60.76
2018-02-23T00:05:18.494Z,60.05
2018-02-23T00:07:48.901Z,60.80
2018-02-23T00:10:16.828Z,60.55
2018-02-23T00:12:45.112Z,60.76
2018-02-23T00:15:12.823Z,61.02
2018-02-23T00:17:41.553Z,60.35
2018-02-23T00:20:09.238Z,60.73
2018-02-23T00:22:43.148Z,61.22
2018-02-23T00:25:12.623Z,60.66
2018-02-23T00:27:40.190Z,60.66
2018-02-23T00:30:07.995Z,60.69
2018-02-23T00:32:35.637Z,61.27
2018-02-23T00:35:03.197Z,61.72
2018-02-23T00:37:30.831Z,60.97
2018-02-23T00:39:58.615Z,61.48
2018-02-23T00:42:26.206Z,61.20
2018-02-23T00:44:53.876Z,61.28
2018-02-23T00:47:21.717Z,60.96
2018-02-23T00:49:49.468Z,61.29
2018-02-23T00:52:17.022Z,61.72
2018-02-23T00:54:44.712Z,61.30
2018-02-23T00:57:12.931Z,61.31
2018-02-23T00:59:40.507Z,61.15
2018-02-23T01:02:08.097Z,61.54
2018-02-23T01:04:35.778Z,61.36
2018-02-23T01:07:03.333Z,61.96
2018-02-23T01:09:31.135Z,61.60
2018-02-23T01:11:58.712Z,61.27
2018-02-23T01:14:26.481Z,61.16
2018-02-23T01:16:54.035Z,61.76
2018-02-23T01:19:22.252Z,60.99
2018-02-23T01:21:50.041Z,60.46
2018-02-23T01:24:17.758Z,60.99
2018-02-23T01:26:45.402Z,61.17
2018-02-23T01:29:13.197Z,61.49
2018-02-23T01:31:40.788Z,61.65
2018-02-23T01:34:08.387Z,61.76
2018-02-23T01:36:35.920Z,61.29
2018-02-23T01:39:03.599Z,61.19
2018-02-23T01:41:31.201Z,61.84
2018-02-23T01:43:58.936Z,61.56
2018-02-23T01:46:26.496Z,61.78
2018-02-23T01:48:54.028Z,61.59
2018-02-23T01:51:21.826Z,61.00
2018-02-23T01:53:49.490Z,60.67
2018-02-23T01:56:17.092Z,59.98
2018-02-23T01:58:44.951Z,60.08
2018-02-23T02:01:12.756Z,60.58
2018-02-23T02:03:40.293Z,60.52
2018-02-23T02:06:07.946Z,59.97
2018-02-23T02:08:36.321Z,59.95
2018-02-23T02:11:04.011Z,59.69
2018-02-23T02:13:31.698Z,59.71
2018-02-23T02:15:59.347Z,59.43
2018-02-23T02:18:27.026Z,60.29
2018-02-23T02:20:54.818Z,60.24
2018-02-23T02:23:22.496Z,59.66
2018-02-23T02:25:50.420Z,59.96
2018-02-23T02:28:17.955Z,60.21
2018-02-23T02:30:46.488Z,60.04
2018-02-23T02:33:14.075Z,60.21
2018-02-23T02:35:41.836Z,60.56
2018-02-23T02:38:09.820Z,60.23
2018-02-23T02:40:37.735Z,60.19
2018-02-23T02:43:05.589Z,60.56
2018-02-23T02:45:33.332Z,60.53
2018-02-23T02:48:00.982Z,60.88
2018-02-23T02:50:28.572Z,61.24
2018-02-23T02:52:56.287Z,61.77
2018-02-23T02:55:23.918Z,61.21
2018-02-23T02:57:51.766Z,60.92
2018-02-23T03:00:19.887Z,60.23
2018-02-23T03:02:47.816Z,61.48
2018-02-23T03:05:15.634Z,61.33
2018-02-23T03:07:43.392Z,62.04
2018-02-23T03:10:11.036Z,62.50
2018-02-23T03:12:38.598Z,62.05
2018-02-23T03:15:06.291Z,61.72
2018-02-23T03:17:33.983Z,61.51
2018-02-23T03:20:02.451Z,61.91
2018-02-23T03:22:30.801Z,61.66
2018-02-23T03:24:58.723Z,61.95
2018-02-23T03:27:26.558Z,61.79
2018-02-23T03:29:54.236Z,62.09
2018-02-23T03:32:22.001Z,62.83
2018-02-23T03:34:49.738Z,62.26
2018-02-23T03:37:17.356Z,61.80
2018-02-23T03:39:45.233Z,62.02
2018-02-23T03:42:12.823Z,62.56
2018-02-23T03:44:40.566Z,62.63
2018-02-23T03:47:08.271Z,62.63
2018-02-23T03:49:37.948Z,62.65
2018-02-23T03:52:05.603Z,62.97
2018-02-23T03:54:33.453Z,62.12
2018-02-23T03:57:01.008Z,62.46
2018-02-23T03:59:28.648Z,62.50
2018-02-23T04:01:56.846Z,62.90
2018-02-23T04:04:24.381Z,62.37
2018-02-23T04:06:51.948Z,62.25
2018-02-23T04:09:19.519Z,62.85
2018-02-23T04:11:47.337Z,62.30
2018-02-23T04:14:14.916Z,62.57
2018-02-23T04:16:42.491Z,62.91
2018-02-23T04:19:10.293Z,62.50
2018-02-23T04:21:37.936Z,62.76
2018-02-23T04:24:05.509Z,63.00
2018-02-23T04:26:33.166Z,63.10
2018-02-23T04:29:01.032Z,63.47
2018-02-23T04:31:28.647Z,63.67
2018-02-23T04:33:56.591Z,63.72
2018-02-23T04:36:24.188Z,63.65
2018-02-23T04:38:52.437Z,64.36
2018-02-23T04:41:20.156Z,64.43
2018-02-23T04:43:47.687Z,64.51
2018-02-23T04:46:15.468Z,63.94
2018-02-23T04:48:43.036Z,63.29
2018-02-23T04:51:10.646Z,62.88
2018-02-23T04:53:38.254Z,63.01
2018-02-23T04:56:06.192Z,63.85
2018-02-23T04:58:33.788Z,62.90
2018-02-23T05:01:01.597Z,63.64
2018-02-23T05:03:29.627Z,63.79
2018-02-23T05:05:57.437Z,64.07
2018-02-23T05:08:25.357Z,64.45
2018-02-23T05:10:53.212Z,64.42
2018-02-23T05:13:20.923Z,63.46
2018-02-23T05:15:48.798Z,64.68
2018-02-23T05:18:16.472Z,64.60
2018-02-23T05:20:44.156Z,64.13
2018-02-23T05:23:11.874Z,64.57
2018-02-23T05:25:40.166Z,64.01
2018-02-23T05:28:08.176Z,64.22
2018-02-23T05:30:35.888Z,64.22
2018-02-23T05:33:03.822Z,64.53
2018-02-23T05:35:31.451Z,64.96
2018-02-23T05:37:59.143Z,64.52
2018-02-23T05:40:27.126Z,63.99
2018-02-23T05:42:54.693Z,64.42
2018-02-23T05:45:22.442Z,64.53
2018-02-23T05:47:50.371Z,64.93
2018-02-23T05:50:17.968Z,64.72
2018-02-23T05:52:45.702Z,64.24
2018-02-23T05:55:13.328Z,63.99
2018-02-23T05:57:40.994Z,64.30
2018-02-23T06:00:08.687Z,64.20
2018-02-23T06:02:36.391Z,65.06
2018-02-23T06:05:04.149Z,64.75
2018-02-23T06:07:32.107Z,65.09
2018-02-23T06:09:59.829Z,64.75
2018-02-23T06:12:27.517Z,65.27
2018-02-23T06:14:55.271Z,65.28
2018-02-23T06:17:28.536Z,65.14
2018-02-23T06:20:01.681Z,64.92
2018-02-23T06:22:29.251Z,65.09
2018-02-23T06:24:57.007Z,65.30
2018-02-23T06:27:24.556Z,64.94
2018-02-23T06:29:52.351Z,65.25
2018-02-23T06:32:20.048Z,65.20
2018-02-23T06:34:47.759Z,65.58
2018-02-23T06:37:15.498Z,65.04
2018-02-23T06:39:43.090Z,65.28
2018-02-23T06:42:10.824Z,65.28
2018-02-23T06:44:38.497Z,65.63
2018-02-23T06:47:12.097Z,65.10
2018-02-23T06:49:39.803Z,65.78
2018-02-23T06:52:07.572Z,65.83
2018-02-23T06:54:35.337Z,65.55
2018-02-23T06:57:03.092Z,65.10
2018-02-23T06:59:30.779Z,64.75
2018-02-23T07:01:58.685Z,65.05
2018-02-23T07:04:26.353Z,64.87
2018-02-23T07:06:54.097Z,64.61
2018-02-23T07:09:21.891Z,65.20
2018-02-23T07:11:49.883Z,65.77
2018-02-23T07:14:17.588Z,66.20
2018-02-23T07:16:45.321Z,65.36
2018-02-23T07:19:13.016Z,65.24
2018-02-23T07:21:40.783Z,66.15
2018-02-23T07:24:08.677Z,66.48
2018-02-23T07:26:36.284Z,65.91
2018-02-23T07:29:03.822Z,65.73
2018-02-23T07:31:31.410Z,65.64
2018-02-23T07:33:58.987Z,65.81
2018-02-23T07:36:26.821Z,65.90
2018-02-23T07:38:55.007Z,65.00
2018-02-23T07:41:22.573Z,65.06
2018-02-23T07:43:50.321Z,65.91
2018-02-23T07:46:17.964Z,65.93
2018-02-23T07:48:45.697Z,65.75
2018-02-23T07:51:14.469Z,66.44
2018-02-23T07:53:42.063Z,66.07
2018-02-23T07:56:09.832Z,65.85
2018-02-23T07:58:37.706Z,66.05
2018-02-23T08:01:05.418Z,66.14
2018-02-23T08:03:33.198Z,66.43
2018-02-23T08:06:00.942Z,65.85
2018-02-23T08:08:28.533Z,66.46
2018-02-23T08:10:56.473Z,66.21
2018-02-23T08:13:24.756Z,66.24
2018-02-23T08:15:52.453Z,66.36
2018-02-23T08:18:20.003Z,66.53
2018-02-23T08:20:47.653Z,66.06
2018-02-23T08:23:15.492Z,65.08
2018-02-23T08:25:43.111Z,65.11
2018-02-23T08:28:10.893Z,65.29
2018-02-23T08:30:38.886Z,65.87
2018-02-23T08:33:07.118Z,65.21
2018-02-23T08:35:35.054Z,66.05
2018-02-23T08:38:02.779Z,66.71
2018-02-23T08:40:30.576Z,66.08
2018-02-23T08:42:58.150Z,65.71
2018-02-23T08:45:26.426Z,65.61
2018-02-23T08:47:54.033Z,64.84
2018-02-23T08:50:21.615Z,64.48
2018-02-23T08:52:49.152Z,65.04
2018-02-23T08:55:16.972Z,65.09
2018-02-23T08:57:44.831Z,64.17
2018-02-23T09:00:19.559Z,63.95
2018-02-23T09:02:47.430Z,63.36
2018-02-23T09:05:15.098Z,63.01
2018-02-23T09:07:42.752Z,63.79
2018-02-23T09:10:10.351Z,64.20
2018-02-23T09:12:38.144Z,63.75
2018-02-23T09:15:05.832Z,64.40
2018-02-23T09:17:33.707Z,63.70
2018-02-23T09:20:01.335Z,62.99
2018-02-23T09:22:29.012Z,62.85
2018-02-23T09:24:56.623Z,62.75
2018-02-23T09:27:24.196Z,62.90
2018-02-23T09:29:51.887Z,63.27
2018-02-23T09:32:32.058Z,64.42
2018-02-23T09:35:00.234Z,63.33
2018-02-23T09:37:27.862Z,64.29
2018-02-23T09:39:56.138Z,64.06
2018-02-23T09:42:23.732Z,63.99
2018-02-23T09:44:56.398Z,63.49
2018-02-23T09:47:24.042Z,63.80
2018-02-23T09:49:51.633Z,64.25
2018-02-23T09:52:20.176Z,63.90
2018-02-23T09:54:47.884Z,63.85
2018-02-23T09:57:15.552Z,65.27
2018-02-23T09:59:43.291Z,63.89
2018-02-23T10:02:10.932Z,64.10
2018-02-23T10:04:38.711Z,63.99
2018-02-23T10:07:06.273Z,63.96
2018-02-23T10:09:34.021Z,63.43
2018-02-23T10:12:01.911Z,62.95
2018-02-23T10:14:30.142Z,63.35
2018-02-23T10:16:58.168Z,63.49
2018-02-23T10:19:25.859Z,63.19
2018-02-23T10:21:53.786Z,63.59
2018-02-23T10:24:21.751Z,62.73
2018-02-23T10:26:49.548Z,63.21
2018-02-23T10:29:17.097Z,62.91
2018-02-23T10:31:44.757Z,62.05
2018-02-23T10:34:12.788Z,63.39
2018-02-23T10:36:40.487Z,63.10
2018-02-23T10:39:08.399Z,64.26
2018-02-23T10:41:36.776Z,63.84
2018-02-23T10:44:04.776Z,63.40
2018-02-23T10:46:32.383Z,62.76
2018-02-23T10:49:00.116Z,62.29
2018-02-23T10:51:27.931Z,62.54
2018-02-23T10:53:55.673Z,62.52
2018-02-23T10:56:23.582Z,62.06
2018-02-23T10:58:51.678Z,62.25
2018-02-23T11:01:19.313Z,62.36
2018-02-23T11:03:47.158Z,62.27
2018-02-23T11:06:15.038Z,61.84
2018-02-23T11:08:42.763Z,62.13
2018-02-23T11:11:10.397Z,62.34
2018-02-23T11:13:38.319Z,62.50
2018-02-23T11:16:06.873Z,62.35
2018-02-23T11:18:34.534Z,62.75
2018-02-23T11:21:02.199Z,62.83
2018-02-23T11:23:29.906Z,62.10
2018-02-23T11:25:57.584Z,63.43
2018-02-23T11:28:25.233Z,62.60
2018-02-23T11:30:52.872Z,62.67
2018-02-23T11:33:20.644Z,62.07
2018-02-23T11:35:48.323Z,62.58
2018-02-23T11:38:16.083Z,62.16
2018-02-23T11:40:43.742Z,63.33
2018-02-23T11:43:11.372Z,62.59
2018-02-23T11:45:39.270Z,62.65
2018-02-23T11:48:06.822Z,62.46
2018-02-23T11:50:34.700Z,63.30
2018-02-23T11:53:02.294Z,62.53
2018-02-23T11:55:30.037Z,63.25
2018-02-23T11:58:09.412Z,63.86
2018-02-23T12:00:37.319Z,63.29
2018-02-23T12:03:05.582Z,62.06
2018-02-23T12:05:34.412Z,62.40
2018-02-23T12:08:02.358Z,62.98
2018-02-23T12:10:32.049Z,62.91
2018-02-23T12:12:59.727Z,62.48
2018-02-23T12:15:27.424Z,62.62
2018-02-23T12:17:55.261Z,61.93
2018-02-23T12:20:23.024Z,62.08
2018-02-23T12:22:50.576Z,60.85
2018-02-23T12:25:18.288Z,61.29
2018-02-23T12:27:46.859Z,62.34
2018-02-23T12:34:00.603Z,61.15
2018-02-23T12:36:28.731Z,61.25
2018-02-23T12:38:58.307Z,61.86
2018-02-23T12:41:26.168Z,62.33
2018-02-23T12:43:53.751Z,62.42
2018-02-23T12:46:21.339Z,61.60
2018-02-23T12:48:49.636Z,61.43
2018-02-23T12:51:17.434Z,61.60
2018-02-23T12:53:45.201Z,61.37
2018-02-23T12:56:12.766Z,60.11
2018-02-23T12:58:40.392Z,59.64
2018-02-23T13:01:08.157Z,61.27
2018-02-23T13:03:35.731Z,59.91
2018-02-23T13:06:04.254Z,59.69
2018-02-23T13:08:31.822Z,59.80
2018-02-23T13:10:59.421Z,59.84
2018-02-23T13:13:27.079Z,60.51
2018-02-23T13:15:54.859Z,60.18
2018-02-23T13:18:22.472Z,60.37
2018-02-23T13:20:50.147Z,61.00
2018-02-23T13:23:17.889Z,60.28
2018-02-23T13:25:45.712Z,59.82
2018-02-23T13:28:18.978Z,59.65
2018-02-23T13:30:46.524Z,59.53
2018-02-23T13:33:14.542Z,59.79
2018-02-23T13:35:42.413Z,59.71
2018-02-23T13:38:10.128Z,59.52
2018-02-23T13:40:37.892Z,59.16
2018-02-23T13:43:05.448Z,59.50
2018-02-23T13:45:33.092Z,58.71
2018-02-23T13:48:00.708Z,58.81
2018-02-23T13:50:28.652Z,58.70
2018-02-23T13:52:56.416Z,58.22
2018-02-23T13:55:24.231Z,59.37
2018-02-23T13:57:51.851Z,58.48
2018-02-23T14:00:19.483Z,58.80
2018-02-23T14:02:47.067Z,58.39
2018-02-23T14:05:14.996Z,58.10
2018-02-23T14:07:43.517Z,60.38
2018-02-23T14:10:11.277Z,59.71
2018-02-23T14:12:39.064Z,59.67
2018-02-23T14:15:06.866Z,60.10
2018-02-23T14:17:34.551Z,60.17
2018-02-23T14:20:02.648Z,60.04
2018-02-23T14:22:30.571Z,60.54
2018-02-23T14:24:58.147Z,59.86
2018-02-23T14:27:25.973Z,59.96
2018-02-23T14:29:53.611Z,60.40
2018-02-23T14:32:21.759Z,61.25
2018-02-23T14:34:49.469Z,60.09
2018-02-23T14:37:17.019Z,60.97
2018-02-23T14:39:44.735Z,60.59
2018-02-23T14:42:12.453Z,60.73
2018-02-23T14:44:42.219Z,60.17
2018-02-23T14:47:10.083Z,60.62
2018-02-23T14:49:50.094Z,60.64
2018-02-23T14:52:17.674Z,60.67
2018-02-23T14:54:45.664Z,60.95
2018-02-23T14:57:13.374Z,60.86
2018-02-23T14:59:41.052Z,60.77
2018-02-23T15:02:08.588Z,60.64
2018-02-23T15:04:36.376Z,61.28
2018-02-23T15:07:04.735Z,60.98
2018-02-23T15:09:32.348Z,61.16
2018-02-23T15:11:59.919Z,61.17
2018-02-23T15:14:27.562Z,60.99
2018-02-23T15:16:55.262Z,61.48
2018-02-23T15:19:22.844Z,60.55
2018-02-23T15:21:51.138Z,61.23
2018-02-23T15:24:18.867Z,61.60
2018-02-23T15:26:46.639Z,60.50
2018-02-23T15:29:14.295Z,60.16
2018-02-23T15:31:54.014Z,60.83
2018-02-23T15:34:22.340Z,60.82
2018-02-23T15:36:50.454Z,60.67
2018-02-23T15:39:18.019Z,61.16
2018-02-23T15:41:45.976Z,61.01
2018-02-23T15:44:13.554Z,61.12
2018-02-23T15:46:41.349Z,61.00
2018-02-23T15:49:14.808Z,61.82
2018-02-23T15:51:57.569Z,60.75
2018-02-23T15:54:25.414Z,61.68
2018-02-23T15:56:53.298Z,61.63
2018-02-23T15:59:21.063Z,62.28
2018-02-23T16:01:48.829Z,61.22
2018-02-23T16:04:16.805Z,61.64
2018-02-23T16:06:44.408Z,61.45
2018-02-23T16:09:12.239Z,61.35
2018-02-23T16:11:40.193Z,61.66
2018-02-23T16:14:07.884Z,61.57
2018-02-23T16:16:35.623Z,62.02
2018-02-23T16:19:03.666Z,62.55
2018-02-23T16:21:31.629Z,61.45
2018-02-23T16:23:59.172Z,61.98
2018-02-23T16:26:27.040Z,63.01
2018-02-23T16:28:54.853Z,62.95
2018-02-23T16:31:22.614Z,62.03
2018-02-23T16:33:50.242Z,61.90
2018-02-23T16:36:17.798Z,61.60
2018-02-23T16:38:45.603Z,61.97
2018-02-23T16:41:13.228Z,61.70
2018-02-23T16:43:41.089Z,62.88
2018-02-23T16:46:08.805Z,62.24
2018-02-23T16:48:36.708Z,62.76
2018-02-23T16:51:04.729Z,63.34
2018-02-23T16:53:32.276Z,63.30
2018-02-23T16:55:59.920Z,62.63
2018-02-23T16:58:27.588Z,62.60
2018-02-23T17:00:55.234Z,62.07
2018-02-23T17:03:23.220Z,62.95
2018-02-23T17:05:50.858Z,64.11
2018-02-23T17:08:18.568Z,65.01
2018-02-23T17:10:46.278Z,63.98
2018-02-23T17:13:14.080Z,64.27
2018-02-23T17:15:41.813Z,64.23
2018-02-23T17:18:09.593Z,63.58
2018-02-23T17:20:37.809Z,64.17
2018-02-23T17:23:05.619Z,63.87
2018-02-23T17:25:33.239Z,63.50
2018-02-23T17:28:01.034Z,63.40
2018-02-23T17:30:28.751Z,63.36
2018-02-23T17:32:56.432Z,62.89
2018-02-23T17:35:24.265Z,63.37
2018-02-23T17:37:52.553Z,62.71
2018-02-23T17:40:20.425Z,62.52
2018-02-23T17:42:48.307Z,61.83
2018-02-23T17:45:16.113Z,63.49
2018-02-23T17:47:44.038Z,61.95
2018-02-23T17:50:11.804Z,61.81
2018-02-23T17:52:39.719Z,62.07
2018-02-23T17:55:07.324Z,62.50
2018-02-23T17:57:35.282Z,61.08
2018-02-23T18:00:03.178Z,62.35
2018-02-23T18:02:31.038Z,61.57
2018-02-23T18:04:58.634Z,62.23
2018-02-23T18:07:26.227Z,62.80
2018-02-23T18:09:53.947Z,63.29
2018-02-23T18:12:22.140Z,63.61
2018-02-23T18:14:49.839Z,62.82
2018-02-23T18:17:18.243Z,62.35
2018-02-23T18:19:46.362Z,62.89
2018-02-23T18:22:14.257Z,63.26
2018-02-23T18:24:41.837Z,63.30
2018-02-23T18:27:09.765Z,62.54
2018-02-23T18:29:37.443Z,63.39
2018-02-23T18:32:05.050Z,63.34
2018-02-23T18:34:33.039Z,62.99
2018-02-23T18:37:00.816Z,62.12
2018-02-23T18:39:28.472Z,62.16
2018-02-23T18:41:56.311Z,62.56
2018-02-23T18:44:23.884Z,62.55
2018-02-23T18:46:51.683Z,63.12
2018-02-23T18:49:20.155Z,62.68
2018-02-23T18:51:48.035Z,62.86
2018-02-23T18:54:16.773Z,63.16
2018-02-23T18:56:44.689Z,62.43
2018-02-23T18:59:12.583Z,62.19
2018-02-23T19:01:40.239Z,61.08
2018-02-23T19:04:08.494Z,61.66
2018-02-23T19:06:36.334Z,60.90
2018-02-23T19:09:04.867Z,60.80
2018-02-23T19:11:32.608Z,61.06
2018-02-23T19:14:00.403Z,60.00
2018-02-23T19:16:28.067Z,59.96
2018-02-23T19:18:55.778Z,60.13
2018-02-23T19:21:23.520Z,60.19
2018-02-23T19:23:51.189Z,59.95
2018-02-23T19:26:18.993Z,60.42
2018-02-23T19:28:46.914Z,61.01
2018-02-23T19:31:14.575Z,60.31
2018-02-23T19:33:42.382Z,60.41
2018-02-23T19:36:10.243Z,60.64
2018-02-23T19:38:38.199Z,60.82
2018-02-23T19:41:06.043Z,60.07
2018-02-23T19:43:33.714Z,60.30
2018-02-23T19:46:01.273Z,61.30
2018-02-23T19:48:29.004Z,61.08
2018-02-23T19:50:56.806Z,60.56
2018-02-23T19:53:24.769Z,60.75
2018-02-23T19:55:52.550Z,60.62
2018-02-23T19:58:20.184Z,61.33
2018-02-23T20:00:47.823Z,61.86
2018-02-23T20:03:15.474Z,61.58
2018-02-23T20:05:43.182Z,61.23
2018-02-23T20:08:11.249Z,61.23
2018-02-23T20:10:38.799Z,61.66
2018-02-23T20:13:07.220Z,61.62
2018-02-23T20:15:34.887Z,62.38
2018-02-23T20:18:02.489Z,61.69
2018-02-23T20:20:30.291Z,61.89
2018-02-23T20:22:58.057Z,62.00
2018-02-23T20:25:25.769Z,62.29
2018-02-23T20:27:53.514Z,61.60
2018-02-23T20:30:21.446Z,61.64
2018-02-23T20:32:49.148Z,61.43
2018-02-23T20:35:17.404Z,62.18
2018-02-23T20:37:45.794Z,61.70
2018-02-23T20:40:13.479Z,61.69
2018-02-23T20:42:41.374Z,61.92
2018-02-23T20:45:09.109Z,61.88
2018-02-23T20:47:37.484Z,61.25
2018-02-23T20:50:05.193Z,61.63
2018-02-23T20:52:33.849Z,62.25
2018-02-23T20:55:02.553Z,61.28
2018-02-23T20:57:30.114Z,61.58
2018-02-23T20:59:57.799Z,61.68
2018-02-23T21:02:25.377Z,61.63
2018-02-23T21:04:53.136Z,61.72
2018-02-23T21:07:20.794Z,61.76
2018-02-23T21:09:48.576Z,62.08
2018-02-23T21:12:16.388Z,62.50
2018-02-23T21:14:44.017Z,62.61
2018-02-23T21:17:11.726Z,62.76
2018-02-23T21:19:39.418Z,62.54
2018-02-23T21:22:06.977Z,62.84
2018-02-23T21:24:34.544Z,63.17
2018-02-23T21:27:02.109Z,62.12
2018-02-23T21:29:30.143Z,62.57
2018-02-23T21:31:57.818Z,62.15
2018-02-23T21:34:26.553Z,62.50
2018-02-23T21:36:54.273Z,62.31
2018-02-23T21:39:22.013Z,62.68
2018-02-23T21:41:54.430Z,62.94
2018-02-23T21:44:22.183Z,62.96
2018-02-23T21:46:49.779Z,63.17
2018-02-23T21:49:17.574Z,62.43
2018-02-23T21:51:45.238Z,62.26
2018-02-23T21:54:12.824Z,62.54
2018-02-23T21:56:40.459Z,63.37
2018-02-23T21:59:08.173Z,62.45
2018-02-23T22:01:35.767Z,62.76
2018-02-23T22:04:04.056Z,62.73
2018-02-23T22:06:31.613Z,62.62
2018-02-23T22:08:59.318Z,63.11
2018-02-23T22:11:26.978Z,63.14
2018-02-23T22:13:55.018Z,63.63
2018-02-23T22:16:22.649Z,63.72
2018-02-23T22:18:50.259Z,63.14
2018-02-23T22:21:18.044Z,63.62
2018-02-23T22:23:45.793Z,62.88
2018-02-23T22:26:14.013Z,63.17
2018-02-23T22:28:41.615Z,63.43
2018-02-23T22:31:09.278Z,63.63
2018-02-23T22:33:36.819Z,63.76
2018-02-23T22:36:04.488Z,63.66
2018-02-23T22:38:32.354Z,63.69
2018-02-23T22:41:01.084Z,63.07
2018-02-23T22:43:28.824Z,63.65
2018-02-23T22:45:56.674Z,63.39
2018-02-23T22:48:24.483Z,63.50
2018-02-23T22:50:52.268Z,63.97
2018-02-23T22:53:19.826Z,63.92
2018-02-23T22:55:47.542Z,63.69
2018-02-23T22:58:15.198Z,64.25
2018-02-23T23:00:42.907Z,63.59
2018-02-23T23:03:10.623Z,63.87
2018-02-23T23:05:38.410Z,63.99
2018-02-23T23:08:06.174Z,64.07
2018-02-23T23:10:34.056Z,64.08
2018-02-23T23:13:01.727Z,64.81
2018-02-23T23:15:29.543Z,64.06
2018-02-23T23:17:57.280Z,63.64
2018-02-23T23:20:25.203Z,63.67
2018-02-23T23:22:53.364Z,63.80
2018-02-23T23:25:20.929Z,64.13
2018-02-23T23:27:48.520Z,64.41
2018-02-23T23:30:16.339Z,64.36
2018-02-23T23:32:44.004Z,64.47
2018-02-23T23:35:12.266Z,64.43
2018-02-23T23:37:39.965Z,64.05
2018-02-23T23:40:07.810Z,64.53
2018-02-23T23:42:35.584Z,65.03
2018-02-23T23:45:03.192Z,65.22
2018-02-23T23:47:30.834Z,64.27
2018-02-23T23:49:58.492Z,64.23
2018-02-23T23:52:26.258Z,64.69
2018-02-23T23:54:53.883Z,65.12
2018-02-23T23:57:21.607Z,64.91
2018-02-23T23:59:49.549Z,64.68
